Time;durP1;ratioP1;P1;durP2;ratioP2;P2;SDS_P1;SDS_P2;PMS_P1;PMS_P2;Temp;Humidity;BMP_temperature;BMP_pressure;BME280_temperature;BME280_humidity;BME280_pressure;Samples;Min_cycle;Max_cycle;Signal;HPM_P1;HPM_P2
2023/02/04 00:01:49;;;;;;;51.92;25.85;;;6.10;99.90;;;;;;5076090;28;20050;-92
2023/02/04 00:04:14;;;;;;;36.72;17.52;;;6.10;99.90;;;;;;5076572;28;20480;-92
2023/02/04 00:06:40;;;;;;;49.78;22.15;;;6.00;99.90;;;;;;5076395;28;20017;-93
2023/02/04 00:09:06;;;;;;;32.65;17.55;;;6.00;99.90;;;;;;5076402;28;20457;-93
2023/02/04 00:11:31;;;;;;;24.98;14.73;;;5.80;99.90;;;;;;5076845;28;20047;-93
2023/02/04 00:13:57;;;;;;;26.77;15.48;;;5.80;99.90;;;;;;5058859;28;20036;-93
2023/02/04 00:16:23;;;;;;;6.70;5.47;;;5.90;99.90;;;;;;5076105;28;20054;-92
2023/02/04 00:18:48;;;;;;;7.38;5.68;;;5.80;99.90;;;;;;5076242;28;20170;-93
2023/02/04 00:21:14;;;;;;;9.77;5.40;;;5.80;99.90;;;;;;5076101;28;20597;-92
2023/02/04 00:23:40;;;;;;;7.28;5.40;;;5.80;99.90;;;;;;5076399;28;20484;-92
2023/02/04 00:26:06;;;;;;;7.78;6.13;;;5.80;99.90;;;;;;5076251;28;20023;-93
2023/02/04 00:28:31;;;;;;;10.95;7.03;;;5.70;99.90;;;;;;5075664;28;20399;-92
2023/02/04 00:30:57;;;;;;;6.63;5.18;;;5.80;99.90;;;;;;5076531;28;20576;-92
2023/02/04 00:33:23;;;;;;;9.15;7.28;;;5.70;99.90;;;;;;5076353;28;20491;-89
2023/02/04 00:35:48;;;;;;;10.43;8.13;;;5.70;99.90;;;;;;5075667;28;20036;-89
2023/02/04 00:38:14;;;;;;;9.48;6.65;;;5.80;99.90;;;;;;5075632;28;20028;-88
2023/02/04 00:40:39;;;;;;;8.95;5.57;;;5.80;99.90;;;;;;5075837;28;20369;-89
2023/02/04 00:43:05;;;;;;;6.47;4.75;;;5.80;99.90;;;;;;5075880;28;20028;-89
2023/02/04 00:45:31;;;;;;;6.25;4.65;;;5.60;99.90;;;;;;5057478;28;20028;-87
2023/02/04 00:47:56;;;;;;;9.35;5.13;;;5.50;99.90;;;;;;5075553;28;20028;-89
2023/02/04 00:50:22;;;;;;;7.97;5.00;;;5.60;99.90;;;;;;5057557;28;20480;-89
2023/02/04 00:52:48;;;;;;;5.75;4.88;;;5.40;99.90;;;;;;5075549;28;20035;-88
2023/02/04 00:55:15;;;;;;;6.53;4.93;;;5.30;99.90;;;;;;5062416;28;20037;-89
2023/02/04 00:57:41;;;;;;;7.32;5.00;;;5.40;99.90;;;;;;5055677;28;20036;-89
2023/02/04 01:00:09;;;;;;;9.48;5.85;;;5.40;99.90;;;;;;5054975;28;20087;-89
2023/02/04 01:02:35;;;;;;;8.40;5.07;;;5.10;99.90;;;;;;5055046;28;20053;-89
2023/02/04 01:05:00;;;;;;;8.50;5.28;;;4.90;99.90;;;;;;5055107;28;20126;-88
2023/02/04 01:07:26;;;;;;;6.47;4.95;;;4.80;99.90;;;;;;5054929;28;20028;-89
2023/02/04 01:09:51;;;;;;;6.65;4.57;;;4.60;99.90;;;;;;5055212;28;20025;-89
2023/02/04 01:12:17;;;;;;;10.55;4.70;;;4.70;99.90;;;;;;5053599;28;20120;-88
2023/02/04 01:14:43;;;;;;;7.78;4.80;;;4.70;99.90;;;;;;5036796;28;20060;-89
2023/02/04 01:17:08;;;;;;;6.82;4.60;;;4.60;99.90;;;;;;5055018;28;20504;-89
2023/02/04 01:19:34;;;;;;;6.55;4.85;;;4.60;99.90;;;;;;5037056;28;20032;-88
2023/02/04 01:22:00;;;;;;;6.72;4.45;;;4.70;99.90;;;;;;5055203;28;20033;-88
2023/02/04 01:24:25;;;;;;;5.78;5.15;;;4.40;99.90;;;;;;5036597;28;20098;-89
2023/02/04 01:26:51;;;;;;;5.85;4.50;;;4.60;99.90;;;;;;5036833;28;20033;-88
2023/02/04 01:29:16;;;;;;;7.15;4.72;;;4.30;99.90;;;;;;5036643;28;20025;-88
2023/02/04 01:31:42;;;;;;;7.45;4.70;;;4.20;99.90;;;;;;5036941;28;20025;-88
2023/02/04 01:34:08;;;;;;;5.70;4.38;;;4.10;99.90;;;;;;5054344;28;20095;-88
2023/02/04 01:36:33;;;;;;;5.72;4.50;;;4.00;99.90;;;;;;5037292;28;20032;-88
2023/02/04 01:38:59;;;;;;;6.30;4.55;;;4.00;99.90;;;;;;5054224;28;20108;-88
2023/02/04 01:41:26;;;;;;;6.78;5.70;;;4.00;99.90;;;;;;5054252;28;20025;-88
2023/02/04 01:43:52;;;;;;;7.82;5.10;;;4.30;99.90;;;;;;5054096;28;20036;-88
2023/02/04 01:46:18;;;;;;;8.45;5.38;;;4.20;99.90;;;;;;5054204;28;20103;-88
2023/02/04 01:48:44;;;;;;;8.02;5.28;;;4.10;99.90;;;;;;5036624;28;20457;-88
2023/02/04 01:51:18;;;;;;;6.78;5.43;;;4.10;99.90;;;;;;5036385;28;20033;-88
2023/02/04 01:53:44;;;;;;;6.75;5.40;;;4.20;99.90;;;;;;5054105;28;20021;-88
2023/02/04 01:56:16;;;;;;;6.72;5.22;;;4.50;99.90;;;;;;5053596;28;20040;-88
2023/02/04 01:58:41;;;;;;;6.88;5.20;;;4.30;99.90;;;;;;5053835;28;20029;-88
2023/02/04 02:01:35;;;;;;;7.85;5.88;;;4.10;99.90;;;;;;5054196;28;20108;-87
2023/02/04 02:04:01;;;;;;;8.93;5.47;;;4.00;99.90;;;;;;5036249;28;20444;-89
2023/02/04 02:06:27;;;;;;;8.45;5.35;;;4.20;99.90;;;;;;5036297;28;20025;-90
2023/02/04 02:08:53;;;;;;;6.93;5.38;;;4.00;99.90;;;;;;5053983;28;20120;-88
2023/02/04 02:11:19;;;;;;;7.68;5.45;;;3.70;99.90;;;;;;5054198;28;20021;-88
2023/02/04 02:13:45;;;;;;;8.30;5.55;;;3.80;99.90;;;;;;5035449;28;20025;-88
2023/02/04 02:16:11;;;;;;;6.63;5.38;;;3.90;99.90;;;;;;5053828;28;20044;-88
2023/02/04 02:18:36;;;;;;;7.78;5.63;;;3.90;99.90;;;;;;5053576;28;20021;-88
2023/02/04 02:21:07;;;;;;;7.53;5.90;;;3.80;99.90;;;;;;5053609;28;20029;-88
2023/02/04 02:23:53;;;;;;;9.20;5.78;;;3.80;99.90;;;;;;5035898;28;20025;-88
2023/02/04 02:26:20;;;;;;;6.38;5.68;;;3.80;99.90;;;;;;5053305;28;20025;-88
2023/02/04 02:28:47;;;;;;;7.82;5.97;;;4.00;99.90;;;;;;5053361;28;20033;-88
2023/02/04 02:31:20;;;;;;;9.32;5.57;;;4.00;99.90;;;;;;5053187;28;20596;-88
2023/02/04 02:33:46;;;;;;;9.70;5.85;;;4.10;99.90;;;;;;5053427;28;20060;-87
2023/02/04 02:36:13;;;;;;;9.07;5.88;;;4.20;99.90;;;;;;5035433;28;20496;-88
2023/02/04 02:38:39;;;;;;;6.82;5.35;;;4.00;99.90;;;;;;5035595;28;20508;-88
2023/02/04 02:41:08;;;;;;;7.15;5.68;;;3.80;99.90;;;;;;5052829;28;20488;-88
2023/02/04 02:43:36;;;;;;;8.20;5.72;;;3.70;99.90;;;;;;5053252;28;20050;-88
2023/02/04 02:46:02;;;;;;;6.95;5.68;;;3.60;99.90;;;;;;5053188;28;20021;-87
2023/02/04 02:48:28;;;;;;;10.48;6.15;;;3.60;99.90;;;;;;5053286;28;20366;-87
2023/02/04 02:50:54;;;;;;;7.43;5.85;;;3.40;99.90;;;;;;5052819;28;20358;-87
2023/02/04 02:53:20;;;;;;;9.43;5.82;;;3.30;99.90;;;;;;5035211;28;20029;-88
2023/02/04 02:55:47;;;;;;;7.53;5.38;;;3.60;99.90;;;;;;5034888;28;20570;-88
2023/02/04 02:58:24;;;;;;;9.30;6.43;;;3.50;99.90;;;;;;5053013;28;20032;-88
2023/02/04 03:00:50;;;;;;;9.07;6.20;;;3.50;99.90;;;;;;5052700;28;20079;-88
2023/02/04 03:03:22;;;;;;;8.32;6.50;;;3.40;99.90;;;;;;5052983;28;20031;-88
2023/02/04 03:05:51;;;;;;;8.27;6.13;;;3.70;99.90;;;;;;5035237;28;20043;-88
2023/02/04 03:08:17;;;;;;;6.38;5.78;;;3.70;99.90;;;;;;5052703;28;20025;-88
2023/02/04 03:10:44;;;;;;;9.00;5.70;;;3.60;99.90;;;;;;5052655;28;20025;-88
2023/02/04 03:13:12;;;;;;;7.35;6.07;;;3.70;99.90;;;;;;5052536;28;20032;-89
2023/02/04 03:15:38;;;;;;;9.20;6.63;;;3.40;99.90;;;;;;5052492;28;20033;-87
2023/02/04 03:18:04;;;;;;;8.00;6.20;;;3.60;99.90;;;;;;5052858;28;20028;-89
2023/02/04 03:20:31;;;;;;;8.70;6.18;;;3.50;99.90;;;;;;5052627;28;20029;-87
2023/02/04 03:22:57;;;;;;;8.07;5.93;;;3.60;99.90;;;;;;5034985;28;20048;-88
2023/02/04 03:25:27;;;;;;;6.95;6.05;;;3.60;99.90;;;;;;5034601;28;20374;-87
2023/02/04 03:27:54;;;;;;;8.70;6.35;;;3.60;99.90;;;;;;5052140;28;20067;-87
2023/02/04 03:30:21;;;;;;;12.55;8.63;;;3.60;99.90;;;;;;5052700;28;20024;-87
2023/02/04 03:32:47;;;;;;;11.45;7.65;;;3.50;99.90;;;;;;5052470;28;20072;-86
2023/02/04 03:35:12;;;;;;;9.52;6.80;;;3.60;99.90;;;;;;5036060;28;20045;-88
2023/02/04 03:37:38;;;;;;;8.82;6.45;;;3.70;99.90;;;;;;5056361;28;20029;-87
2023/02/04 03:40:04;;;;;;;6.97;5.57;;;3.70;99.90;;;;;;5056085;28;20029;-88
2023/02/04 03:42:30;;;;;;;9.20;6.15;;;3.60;99.90;;;;;;5056710;28;20029;-88
2023/02/04 03:44:55;;;;;;;11.75;6.75;;;3.70;99.90;;;;;;5056477;28;20100;-87
2023/02/04 03:47:21;;;;;;;10.13;6.80;;;3.50;99.90;;;;;;5038494;28;20049;-88
2023/02/04 03:49:47;;;;;;;9.02;6.95;;;3.40;99.90;;;;;;5056355;28;20029;-88
2023/02/04 03:52:12;;;;;;;8.32;5.90;;;3.20;99.90;;;;;;5056601;28;20029;-87
2023/02/04 03:54:38;;;;;;;7.05;6.15;;;3.30;99.90;;;;;;5055467;28;20033;-87
2023/02/04 03:57:04;;;;;;;9.30;6.47;;;3.50;99.90;;;;;;5056262;28;20512;-87
2023/02/04 03:59:29;;;;;;;9.50;6.82;;;3.20;99.90;;;;;;5038440;28;20185;-88
2023/02/04 04:01:55;;;;;;;9.20;6.65;;;3.40;99.90;;;;;;5056235;28;20036;-88
2023/02/04 04:04:21;;;;;;;7.32;6.35;;;3.40;99.90;;;;;;5055873;28;20181;-88
2023/02/04 04:06:46;;;;;;;10.15;7.00;;;3.40;99.90;;;;;;5038136;28;20029;-87
2023/02/04 04:09:12;;;;;;;9.45;6.75;;;3.50;99.90;;;;;;5055907;28;20512;-88
2023/02/04 04:11:37;;;;;;;9.13;6.60;;;3.50;99.90;;;;;;5055950;28;20421;-87
2023/02/04 04:14:03;;;;;;;9.18;6.45;;;3.30;99.90;;;;;;5055585;28;20485;-87
2023/02/04 04:16:29;;;;;;;9.82;6.75;;;3.40;99.90;;;;;;5055793;28;20040;-88
2023/02/04 04:18:55;;;;;;;10.55;6.63;;;3.20;99.90;;;;;;5038034;28;20017;-87
2023/02/04 04:21:20;;;;;;;7.88;5.60;;;3.10;99.90;;;;;;5055752;28;20025;-87
2023/02/04 04:23:46;;;;;;;9.90;6.72;;;3.00;99.90;;;;;;5055508;28;20025;-88
2023/02/04 04:26:12;;;;;;;8.48;6.65;;;3.10;99.90;;;;;;5037846;28;20043;-88
2023/02/04 04:28:37;;;;;;;9.57;6.60;;;3.20;99.90;;;;;;5055609;28;20025;-87
2023/02/04 04:31:03;;;;;;;11.48;6.63;;;3.10;99.90;;;;;;5055467;28;20394;-87
2023/02/04 04:33:29;;;;;;;10.50;7.10;;;3.00;99.90;;;;;;5055448;28;20144;-87
2023/02/04 04:35:54;;;;;;;8.65;6.30;;;3.20;99.90;;;;;;5037637;28;20134;-87
2023/02/04 04:38:20;;;;;;;8.57;6.40;;;3.10;99.90;;;;;;5037441;28;20025;-87
2023/02/04 04:40:46;;;;;;;9.23;6.70;;;3.00;99.90;;;;;;5037485;28;20052;-88
2023/02/04 04:43:11;;;;;;;9.63;6.07;;;3.00;99.90;;;;;;5037502;28;20048;-88
2023/02/04 04:45:37;;;;;;;7.70;6.40;;;3.10;99.90;;;;;;5037122;28;20036;-87
2023/02/04 04:48:03;;;;;;;9.40;6.50;;;3.00;99.90;;;;;;5055489;28;20488;-87
2023/02/04 04:50:29;;;;;;;8.38;6.30;;;2.90;99.90;;;;;;5054950;28;20032;-88
2023/02/04 04:52:54;;;;;;;9.88;6.50;;;3.10;99.90;;;;;;5054810;28;20063;-87
2023/02/04 04:55:20;;;;;;;8.35;6.03;;;3.20;99.90;;;;;;5054626;28;20068;-88
2023/02/04 04:57:46;;;;;;;7.90;5.85;;;3.10;99.90;;;;;;5054803;28;20024;-88
2023/02/04 05:00:16;;;;;;;6.70;5.22;;;3.20;99.90;;;;;;5055334;28;20021;-87
2023/02/04 05:02:42;;;;;;;9.25;6.18;;;3.40;99.90;;;;;;5037206;28;20128;-87
2023/02/04 05:05:09;;;;;;;8.10;5.50;;;3.50;99.90;;;;;;5037401;28;20485;-87
2023/02/04 05:07:34;;;;;;;7.10;5.88;;;3.50;99.90;;;;;;5054287;28;20078;-87
2023/02/04 05:10:00;;;;;;;6.63;5.30;;;3.70;99.90;;;;;;5055086;28;20481;-87
2023/02/04 05:12:26;;;;;;;6.60;5.57;;;3.70;99.90;;;;;;5054723;28;20075;-88
2023/02/04 05:14:51;;;;;;;7.45;5.55;;;3.90;99.90;;;;;;5054928;28;20044;-87
2023/02/04 05:17:17;;;;;;;8.68;6.20;;;3.80;99.90;;;;;;5036753;28;20027;-88
2023/02/04 05:19:43;;;;;;;8.32;6.05;;;4.00;99.90;;;;;;5054370;28;20025;-88
2023/02/04 05:22:08;;;;;;;8.98;5.85;;;3.90;99.90;;;;;;5036937;28;20025;-88
2023/02/04 05:24:34;;;;;;;7.47;5.72;;;4.10;99.90;;;;;;5054641;28;20021;-88
2023/02/04 05:27:00;;;;;;;6.90;5.43;;;4.10;99.90;;;;;;5054445;28;20028;-88
2023/02/04 05:29:25;;;;;;;7.72;5.80;;;3.90;99.90;;;;;;5036934;28;20028;-88
2023/02/04 05:31:51;;;;;;;8.93;5.72;;;3.80;99.90;;;;;;5036519;28;20029;-88
2023/02/04 05:34:16;;;;;;;7.47;5.68;;;3.90;99.90;;;;;;5036219;28;20099;-88
2023/02/04 05:36:42;;;;;;;8.88;6.22;;;4.10;99.90;;;;;;5054206;28;20033;-88
2023/02/04 05:39:08;;;;;;;7.65;5.22;;;4.00;99.90;;;;;;5054107;28;20363;-87
2023/02/04 05:41:33;;;;;;;7.57;5.78;;;4.00;99.90;;;;;;5053888;28;20466;-88
2023/02/04 05:43:59;;;;;;;5.82;5.00;;;4.00;99.90;;;;;;5054250;28;20025;-87
2023/02/04 05:46:24;;;;;;;8.10;5.38;;;4.00;99.90;;;;;;5054009;28;20477;-88
2023/02/04 05:48:50;;;;;;;7.63;5.20;;;4.20;99.90;;;;;;5036457;28;20412;-88
2023/02/04 05:51:16;;;;;;;7.18;4.90;;;4.40;99.90;;;;;;5053651;28;20049;-88
2023/02/04 05:53:41;;;;;;;6.38;5.32;;;4.40;99.90;;;;;;5036178;28;20029;-88
2023/02/04 05:56:07;;;;;;;7.57;5.93;;;4.30;99.90;;;;;;5035850;28;20036;-88
2023/02/04 05:58:33;;;;;;;6.18;5.25;;;4.40;99.90;;;;;;5035819;28;20029;-88
2023/02/04 06:01:02;;;;;;;7.95;6.10;;;4.60;99.90;;;;;;5053744;28;20036;-88
2023/02/04 06:03:29;;;;;;;8.13;6.38;;;4.70;99.90;;;;;;5036132;28;20021;-88
2023/02/04 06:05:55;;;;;;;7.35;5.70;;;4.90;99.90;;;;;;5035739;28;20397;-88
2023/02/04 06:08:21;;;;;;;8.77;6.22;;;4.70;99.90;;;;;;5053896;28;20075;-88
2023/02/04 06:10:47;;;;;;;9.57;6.85;;;4.70;99.90;;;;;;5053851;28;20057;-88
2023/02/04 06:13:13;;;;;;;8.18;5.53;;;4.80;99.90;;;;;;5036027;28;20032;-88
2023/02/04 06:15:38;;;;;;;7.10;5.82;;;4.80;99.90;;;;;;5053422;28;20037;-88
2023/02/04 06:18:04;;;;;;;7.38;5.55;;;5.10;99.90;;;;;;5035808;28;20388;-88
2023/02/04 06:20:29;;;;;;;8.40;6.20;;;5.00;99.90;;;;;;5036245;28;20024;-88
2023/02/04 06:22:55;;;;;;;8.23;5.57;;;5.30;99.90;;;;;;5053700;28;20025;-88
2023/02/04 06:25:21;;;;;;;7.68;5.40;;;5.50;99.90;;;;;;5035756;28;20048;-88
2023/02/04 06:27:47;;;;;;;7.32;5.78;;;5.40;99.90;;;;;;5053818;28;20100;-88
2023/02/04 06:30:13;;;;;;;7.35;5.32;;;5.70;99.90;;;;;;5053304;28;20124;-88
2023/02/04 06:32:39;;;;;;;8.43;6.18;;;5.60;99.90;;;;;;5035471;28;20045;-88
2023/02/04 06:35:05;;;;;;;8.43;6.13;;;5.60;99.90;;;;;;5052874;28;20039;-88
2023/02/04 06:37:31;;;;;;;6.35;5.53;;;5.60;99.90;;;;;;5053265;28;20021;-88
2023/02/04 06:39:56;;;;;;;6.15;5.32;;;5.70;99.90;;;;;;5053334;28;20029;-88
2023/02/04 06:42:24;;;;;;;7.32;5.50;;;5.90;99.90;;;;;;5053270;28;20109;-88
2023/02/04 06:44:50;;;;;;;6.22;5.40;;;6.10;99.90;;;;;;5053421;28;20041;-88
2023/02/04 06:47:16;;;;;;;8.57;5.45;;;6.10;99.90;;;;;;5035241;28;20029;-88
2023/02/04 06:49:41;;;;;;;5.53;4.85;;;6.10;99.90;;;;;;5052925;28;20035;-89
2023/02/04 06:52:07;;;;;;;8.13;5.78;;;6.40;99.90;;;;;;5052787;28;20074;-88
2023/02/04 06:54:33;;;;;;;7.38;5.13;;;6.20;99.90;;;;;;5052977;28;20072;-88
2023/02/04 06:57:05;;;;;;;7.88;5.78;;;6.20;99.90;;;;;;5053246;28;20028;-88
2023/02/04 06:59:32;;;;;;;8.25;5.70;;;6.10;99.90;;;;;;5053299;28;20050;-89
2023/02/04 07:01:58;;;;;;;8.85;5.53;;;6.40;99.90;;;;;;5053133;28;20086;-89
2023/02/04 07:04:24;;;;;;;8.93;5.72;;;6.20;99.90;;;;;;5053304;28;20033;-89
2023/02/04 07:06:49;;;;;;;7.47;6.28;;;6.20;99.90;;;;;;5035960;28;20083;-89
2023/02/04 07:09:15;;;;;;;7.30;6.00;;;6.20;99.90;;;;;;5053430;28;20063;-89
2023/02/04 07:11:40;;;;;;;8.75;6.25;;;6.20;99.90;;;;;;5052834;28;20099;-89
2023/02/04 07:14:06;;;;;;;8.40;5.95;;;6.40;99.90;;;;;;5052993;28;20397;-89
2023/02/04 07:16:32;;;;;;;8.30;6.43;;;6.40;99.90;;;;;;5053341;28;20096;-89
2023/02/04 07:18:57;;;;;;;9.35;6.18;;;6.50;99.90;;;;;;5035271;28;20112;-89
2023/02/04 07:21:23;;;;;;;8.85;7.15;;;6.60;99.90;;;;;;5053231;28;20025;-89
2023/02/04 07:23:48;;;;;;;8.93;6.40;;;6.30;99.90;;;;;;5053445;28;20029;-89
2023/02/04 07:26:14;;;;;;;11.00;7.60;;;6.30;99.90;;;;;;5035368;28;20025;-89
2023/02/04 07:28:40;;;;;;;12.40;7.50;;;6.50;99.90;;;;;;5035150;28;20028;-89
2023/02/04 07:31:06;;;;;;;10.63;7.68;;;6.50;99.90;;;;;;5052908;28;20025;-89
2023/02/04 07:33:31;;;;;;;10.55;7.68;;;6.60;99.90;;;;;;5034361;28;20524;-90
2023/02/04 07:35:57;;;;;;;10.50;7.55;;;6.50;99.90;;;;;;5035333;28;20037;-89
2023/02/04 07:38:22;;;;;;;12.07;7.85;;;6.50;99.90;;;;;;5052916;28;20100;-89
2023/02/04 07:40:48;;;;;;;11.15;7.45;;;6.50;99.90;;;;;;5053032;28;20028;-89
2023/02/04 07:43:14;;;;;;;13.05;8.27;;;6.60;99.90;;;;;;5052761;28;20029;-89
2023/02/04 07:45:40;;;;;;;10.55;7.53;;;6.60;99.90;;;;;;5052036;28;20025;-89
2023/02/04 07:48:06;;;;;;;10.88;7.93;;;6.60;99.90;;;;;;5035026;28;20416;-89
2023/02/04 07:50:31;;;;;;;10.52;7.15;;;6.70;99.90;;;;;;5052890;28;20063;-89
2023/02/04 07:52:57;;;;;;;11.25;7.18;;;6.80;99.90;;;;;;5053062;28;20053;-89
2023/02/04 07:55:23;;;;;;;13.13;7.40;;;6.80;99.90;;;;;;5052615;28;20033;-89
2023/02/04 07:57:49;;;;;;;9.07;6.30;;;6.70;99.90;;;;;;5053219;28;20485;-88
2023/02/04 08:00:15;;;;;;;11.35;5.57;;;6.70;99.90;;;;;;5052174;28;20029;-88
2023/02/04 08:02:41;;;;;;;10.07;6.47;;;6.80;99.90;;;;;;5035096;28;20064;-89
2023/02/04 08:05:07;;;;;;;9.25;6.32;;;6.80;99.90;;;;;;5052343;28;20017;-88
2023/02/04 08:07:33;;;;;;;7.05;5.43;;;6.90;99.90;;;;;;5035183;28;20055;-89
2023/02/04 08:09:59;;;;;;;8.52;5.70;;;6.90;99.90;;;;;;5052411;28;20509;-89
2023/02/04 08:12:24;;;;;;;7.82;4.60;;;6.90;99.90;;;;;;5052540;28;20029;-89
2023/02/04 08:14:50;;;;;;;7.18;4.82;;;6.80;99.90;;;;;;5034447;28;20037;-89
2023/02/04 08:17:16;;;;;;;5.30;4.70;;;6.90;99.90;;;;;;5034948;28;20111;-89
2023/02/04 08:19:42;;;;;;;6.32;4.95;;;6.90;99.90;;;;;;5052327;28;20110;-89
2023/02/04 08:22:07;;;;;;;7.97;5.70;;;6.90;99.90;;;;;;5037381;28;20025;-88
2023/02/04 08:24:33;;;;;;;8.27;5.63;;;7.00;99.90;;;;;;5056493;28;20116;-89
2023/02/04 08:26:58;;;;;;;7.47;5.70;;;7.10;99.90;;;;;;5038232;28;20021;-89
2023/02/04 08:29:24;;;;;;;6.50;4.97;;;7.00;99.90;;;;;;5037741;28;20025;-89
2023/02/04 08:31:50;;;;;;;6.07;5.20;;;7.00;99.90;;;;;;5055883;28;20481;-89
2023/02/04 08:34:16;;;;;;;7.55;5.28;;;7.10;99.90;;;;;;5055510;28;20041;-89
2023/02/04 08:36:43;;;;;;;9.88;6.70;;;7.00;99.90;;;;;;5055708;28;20401;-90
2023/02/04 08:39:09;;;;;;;5.57;4.97;;;7.20;99.90;;;;;;5055697;28;20511;-89
2023/02/04 08:41:34;;;;;;;5.50;4.88;;;7.20;99.90;;;;;;5056094;28;20025;-89
2023/02/04 08:44:00;;;;;;;5.97;5.38;;;7.20;99.90;;;;;;5037487;28;20111;-88
2023/02/04 08:46:26;;;;;;;6.72;5.88;;;7.20;99.90;;;;;;5055232;28;20037;-89
2023/02/04 08:48:56;;;;;;;6.35;4.80;;;7.20;99.90;;;;;;5038117;28;20035;-89
2023/02/04 08:51:21;;;;;;;5.45;4.95;;;7.30;99.90;;;;;;5037830;28;20528;-88
2023/02/04 08:53:47;;;;;;;6.68;5.43;;;7.30;99.90;;;;;;5036899;28;20028;-88
2023/02/04 08:56:16;;;;;;;6.00;5.30;;;7.40;99.90;;;;;;5037778;28;20029;-88
2023/02/04 08:58:43;;;;;;;5.95;5.35;;;7.40;99.90;;;;;;5054504;28;20035;-88
2023/02/04 09:01:10;;;;;;;5.68;4.40;;;7.50;99.90;;;;;;5037506;28;20120;-89
2023/02/04 09:03:36;;;;;;;6.60;5.97;;;7.60;99.90;;;;;;5055262;28;20017;-88
2023/02/04 09:06:02;;;;;;;5.70;5.20;;;7.50;99.90;;;;;;5055019;28;20033;-89
2023/02/04 09:08:28;;;;;;;4.50;4.10;;;7.50;99.90;;;;;;5055271;28;20017;-88
2023/02/04 09:10:54;;;;;;;4.95;4.18;;;7.60;99.90;;;;;;5055095;28;20033;-88
2023/02/04 09:13:19;;;;;;;4.72;4.30;;;7.70;99.90;;;;;;5037002;28;20083;-88
2023/02/04 09:15:45;;;;;;;5.50;4.03;;;7.70;99.90;;;;;;5036970;28;20063;-89
2023/02/04 09:18:15;;;;;;;5.82;4.57;;;7.70;99.90;;;;;;5037157;28;20025;-89
2023/02/04 09:20:42;;;;;;;4.95;4.03;;;7.90;99.90;;;;;;5054808;28;20104;-89
2023/02/04 09:23:10;;;;;;;4.07;3.65;;;7.90;99.90;;;;;;5054701;28;20028;-89
2023/02/04 09:25:37;;;;;;;3.95;3.42;;;7.90;99.90;;;;;;5054995;28;20033;-88
2023/02/04 09:28:03;;;;;;;4.18;3.58;;;8.10;99.90;;;;;;5036604;28;20358;-89
2023/02/04 09:30:28;;;;;;;4.45;3.70;;;8.00;99.90;;;;;;5036797;28;20040;-89
2023/02/04 09:32:54;;;;;;;4.78;3.97;;;8.00;99.90;;;;;;5053536;28;20094;-88
2023/02/04 09:35:20;;;;;;;5.55;3.70;;;8.00;99.90;;;;;;5036732;28;20041;-88
2023/02/04 09:37:45;;;;;;;4.30;3.75;;;8.10;99.90;;;;;;5054449;28;20017;-88
2023/02/04 09:40:16;;;;;;;4.28;3.58;;;8.20;99.90;;;;;;5036906;28;20033;-89
2023/02/04 09:42:45;;;;;;;4.18;3.30;;;8.20;99.90;;;;;;5054504;28;20021;-88
2023/02/04 09:45:22;;;;;;;4.10;3.70;;;8.30;99.90;;;;;;5054285;28;20124;-88
2023/02/04 09:47:48;;;;;;;3.75;3.40;;;8.10;99.90;;;;;;5054101;28;20036;-89
2023/02/04 09:50:17;;;;;;;4.10;3.28;;;8.10;99.90;;;;;;5036390;28;20025;-88
2023/02/04 09:52:43;;;;;;;4.30;3.50;;;8.00;99.90;;;;;;5054033;28;20520;-89
2023/02/04 09:55:18;;;;;;;4.07;3.67;;;8.20;99.90;;;;;;5036142;28;20052;-89
2023/02/04 09:57:45;;;;;;;4.05;3.65;;;8.10;99.90;;;;;;5053608;28;20074;-89
2023/02/04 10:00:17;;;;;;;5.13;4.47;;;8.10;99.90;;;;;;5054511;28;20028;-88
2023/02/04 10:02:42;;;;;;;4.18;3.78;;;8.40;99.90;;;;;;5053893;28;20078;-88
2023/02/04 10:05:16;;;;;;;5.13;3.88;;;8.40;99.90;;;;;;5054141;28;20104;-88
2023/02/04 10:07:44;;;;;;;6.72;3.72;;;8.50;99.90;;;;;;5036375;28;20124;-88
2023/02/04 10:10:24;;;;;;;4.32;3.50;;;8.50;99.90;;;;;;5054857;28;20036;-89
2023/02/04 10:12:52;;;;;;;4.72;3.95;;;8.30;99.90;;;;;;5053476;28;20108;-89
2023/02/04 10:15:19;;;;;;;4.65;3.70;;;8.30;99.90;;;;;;5036562;28;20124;-88
2023/02/04 10:17:45;;;;;;;4.28;3.85;;;8.50;99.90;;;;;;5054599;28;20060;-89
2023/02/04 10:20:13;;;;;;;4.32;3.92;;;8.60;99.90;;;;;;5053852;28;20032;-89
2023/02/04 10:22:39;;;;;;;4.43;4.03;;;8.40;99.90;;;;;;5054009;28;20031;-88
2023/02/04 10:25:12;;;;;;;4.82;3.63;;;8.50;99.90;;;;;;5053540;28;20029;-89
2023/02/04 10:27:56;;;;;;;4.20;3.80;;;8.60;99.90;;;;;;5053273;28;20082;-88
2023/02/04 10:30:32;;;;;;;3.58;3.28;;;8.60;99.90;;;;;;5053661;28;20053;-88
2023/02/04 10:32:58;;;;;;;10.23;8.52;;;8.70;99.90;;;;;;5053196;28;20515;-88
2023/02/04 10:35:24;;;;;;;5.07;4.25;;;8.90;99.90;;;;;;5052990;28;20052;-89
2023/02/04 10:38:05;;;;;;;3.10;2.80;;;9.00;99.90;;;;;;5035725;28;20115;-89
2023/02/04 10:40:32;;;;;;;3.60;3.30;;;9.00;99.90;;;;;;5052994;28;20051;-88
2023/02/04 10:42:59;;;;;;;3.33;3.00;;;9.20;99.90;;;;;;5053634;28;20493;-88
2023/02/04 10:45:29;;;;;;;3.38;2.97;;;9.50;99.90;;;;;;5052933;28;20025;-88
2023/02/04 10:47:55;;;;;;;4.13;3.20;;;9.50;99.90;;;;;;5053330;28;20055;-88
2023/02/04 10:50:26;;;;;;;3.40;3.10;;;9.60;99.90;;;;;;5053200;28;20021;-89
2023/02/04 10:54:28;;;;;;;5.15;3.40;;;9.60;99.90;;;;;;5053085;28;20025;-88
2023/02/04 10:55:40;;;;;;;3.70;3.40;;;9.90;99.90;;;;;;5052084;28;20045;-89
2023/02/04 10:58:10;;;;;;;4.63;3.30;;;9.90;99.90;;;;;;5035450;28;20084;-88
2023/02/04 11:00:36;;;;;;;3.20;2.90;;;10.10;99.90;;;;;;5053334;28;20021;-89
2023/02/04 11:03:23;;;;;;;5.85;3.80;;;9.90;99.90;;;;;;5035766;28;20396;-88
2023/02/04 11:05:50;;;;;;;6.25;3.70;;;9.80;99.90;;;;;;5035393;28;20032;-89
2023/02/04 11:08:37;;;;;;;4.40;4.00;;;9.80;99.90;;;;;;5053081;28;20033;-89
2023/02/04 11:11:08;;;;;;;6.85;3.60;;;10.00;99.90;;;;;;5035080;28;20033;-88
2023/02/04 11:13:51;;;;;;;5.78;3.95;;;10.30;99.90;;;;;;5052751;28;20041;-88
2023/02/04 11:16:16;;;;;;;4.63;4.07;;;10.30;99.90;;;;;;5035224;28;20041;-88
2023/02/04 11:18:54;;;;;;;5.65;4.22;;;10.70;99.90;;;;;;5052998;28;20035;-89
2023/02/04 11:21:31;;;;;;;4.65;4.20;;;10.80;99.90;;;;;;5035268;28;20029;-88
2023/02/04 11:24:12;;;;;;;3.97;3.58;;;11.20;99.90;;;;;;5034506;28;20047;-88
2023/02/04 11:27:21;;;;;;;6.47;3.50;;;11.30;99.90;;;;;;5053065;28;20053;-88
2023/02/04 11:29:47;;;;;;;4.68;3.83;;;11.20;99.90;;;;;;4955567;28;20035;-88
2023/02/04 11:32:34;;;;;;;5.32;4.30;;;10.80;99.90;;;;;;4971840;28;20046;-88
2023/02/04 11:35:27;;;;;;;5.15;4.07;;;10.70;99.90;;;;;;4971971;28;20039;-88
2023/02/04 11:37:54;;;;;;;6.20;4.10;;;11.00;99.90;;;;;;4970333;28;20068;-89
2023/02/04 11:40:31;;;;;;;5.22;3.90;;;11.30;99.90;;;;;;4972039;28;20035;-89
2023/02/04 11:43:12;;;;;;;5.07;3.47;;;14.90;99.90;;;;;;4972131;28;20027;-88
2023/02/04 11:45:39;;;;;;;4.20;3.60;;;17.70;99.90;;;;;;4971725;28;20455;-88
2023/02/04 11:48:18;;;;;;;4.05;3.40;;;20.80;99.90;;;;;;4972229;28;20035;-89
2023/02/04 11:51:02;;;;;;;3.78;3.33;;;16.20;99.90;;;;;;4955508;28;20027;-88
2023/02/04 11:53:33;;;;;;;4.00;3.60;;;17.10;99.90;;;;;;4971268;28;20035;-89
2023/02/04 11:55:59;;;;;;;9.25;4.05;;;17.40;99.90;;;;;;4972469;28;20043;-89
2023/02/04 11:58:27;;;;;;;4.90;3.80;;;19.20;99.90;;;;;;4975852;28;20109;-88
2023/02/04 12:00:53;;;;;;;7.70;4.85;;;24.10;99.90;;;;;;4975036;28;20030;-90
2023/02/04 12:03:30;;;;;;;4.80;4.30;;;24.40;99.90;;;;;;4975545;28;20023;-89
2023/02/04 12:05:57;;;;;;;6.47;3.53;;;21.80;99.90;;;;;;5040151;28;20044;-89
2023/02/04 12:08:23;;;;;;;3.67;3.17;;;19.20;99.90;;;;;;5037943;28;20366;-89
2023/02/04 12:10:51;;;;;;;6.03;3.90;;;16.30;99.90;;;;;;5055918;28;20035;-89
2023/02/04 12:13:21;;;;;;;3.22;2.92;;;16.10;99.90;;;;;;5056135;28;20040;-89
2023/02/04 12:16:02;;;;;;;4.18;3.50;;;15.80;99.90;;;;;;5056103;28;20033;-89
2023/02/04 12:18:28;;;;;;;6.13;3.80;;;16.10;99.90;;;;;;5055864;28;20061;-89
2023/02/04 12:20:56;;;;;;;4.80;3.50;;;16.40;99.90;;;;;;5056003;28;20028;-89
2023/02/04 12:23:23;;;;;;;4.43;2.78;;;19.40;99.90;;;;;;5055428;28;20047;-89
2023/02/04 12:25:48;;;;;;;3.00;2.50;;;19.00;99.90;;;;;;5056092;28;20388;-89
2023/02/04 12:28:14;;;;;;;2.60;2.40;;;16.50;99.90;;;;;;5055820;28;20029;-89
2023/02/04 12:30:40;;;;;;;2.90;2.28;;;15.80;99.90;;;;;;5038016;28;20029;-89
2023/02/04 12:33:06;;;;;;;2.80;2.10;;;14.80;99.90;;;;;;5038118;28;20049;-89
2023/02/04 12:35:32;;;;;;;2.85;2.17;;;14.40;99.90;;;;;;5055642;28;20508;-89
2023/02/04 12:37:58;;;;;;;2.55;2.35;;;13.70;99.90;;;;;;5055708;28;20021;-89
2023/02/04 12:40:24;;;;;;;2.83;2.20;;;13.30;99.90;;;;;;5037868;28;20083;-89
2023/02/04 12:42:50;;;;;;;2.22;1.90;;;13.10;99.90;;;;;;5056354;28;20025;-89
2023/02/04 12:45:16;;;;;;;2.80;2.20;;;13.10;99.90;;;;;;5037871;28;20040;-89
2023/02/04 12:47:43;;;;;;;2.05;1.85;;;13.20;99.90;;;;;;5037690;28;20504;-89
2023/02/04 12:50:11;;;;;;;2.10;1.90;;;12.70;99.90;;;;;;5037617;28;20049;-89
2023/02/04 12:52:38;;;;;;;2.30;1.77;;;12.60;99.90;;;;;;5037617;28;20028;-89
2023/02/04 12:55:05;;;;;;;2.22;1.80;;;12.30;99.90;;;;;;5054817;28;20390;-89
2023/02/04 12:57:32;;;;;;;1.85;1.58;;;12.30;99.90;;;;;;5055733;28;20504;-89